createdAt,value
2023-05-06T00:00:24.428Z,12.93
2023-05-06T00:03:22.433Z,12.92
2023-05-06T00:06:19.989Z,12.90
2023-05-06T00:09:17.930Z,12.88
2023-05-06T00:12:15.396Z,12.87
2023-05-06T00:15:13.281Z,12.85
2023-05-06T00:18:11.124Z,12.82
2023-05-06T00:21:08.555Z,12.78
2023-05-06T00:24:06.465Z,12.76
2023-05-06T00:27:04.344Z,12.74
2023-05-06T00:30:02.244Z,12.73
2023-05-06T00:32:59.731Z,12.71
2023-05-06T00:35:57.595Z,12.69
2023-05-06T00:38:55.258Z,12.81
2023-05-06T00:41:53.177Z,12.92
2023-05-06T00:44:50.642Z,12.95
2023-05-06T00:47:48.633Z,13.02
2023-05-06T00:50:46.626Z,13.08
2023-05-06T00:53:43.986Z,13.15
2023-05-06T00:56:41.731Z,13.22
2023-05-06T00:59:39.801Z,13.29
2023-05-06T01:02:46.256Z,13.35
2023-05-06T01:05:46.200Z,13.43
2023-05-06T01:08:44.342Z,13.54
2023-05-06T01:11:42.240Z,13.67
2023-05-06T01:14:39.689Z,13.81
2023-05-06T01:17:37.579Z,13.98
2023-05-06T01:20:35.039Z,14.14
2023-05-06T01:23:32.874Z,14.25
2023-05-06T01:26:30.274Z,14.35
2023-05-06T01:29:31.224Z,14.44
2023-05-06T01:32:29.065Z,14.55
2023-05-06T01:35:26.537Z,14.66
2023-05-06T01:38:24.573Z,14.76
2023-05-06T01:41:22.445Z,14.87
2023-05-06T01:44:19.884Z,15.05
2023-05-06T01:47:17.677Z,15.20
2023-05-06T01:50:15.190Z,15.25
2023-05-06T01:53:13.105Z,15.30
2023-05-06T01:56:10.555Z,15.35
2023-05-06T01:59:08.333Z,15.39
2023-05-06T02:02:07.554Z,15.43
2023-05-06T02:05:05.096Z,15.46
2023-05-06T02:08:02.970Z,15.50
2023-05-06T02:11:00.440Z,15.53
2023-05-06T02:13:58.779Z,15.55
2023-05-06T02:16:56.434Z,15.57
2023-05-06T02:19:54.430Z,15.59
2023-05-06T02:22:51.857Z,15.61
2023-05-06T02:25:50.691Z,15.62
2023-05-06T02:28:48.133Z,15.65
2023-05-06T02:31:46.152Z,15.67
2023-05-06T02:34:43.600Z,15.69
2023-05-06T02:37:41.451Z,15.70
2023-05-06T02:40:38.899Z,15.73
2023-05-06T02:43:36.798Z,15.76
2023-05-06T02:46:34.243Z,15.77
2023-05-06T02:49:32.214Z,15.77
2023-05-06T02:52:29.600Z,15.77
2023-05-06T02:55:27.442Z,15.76
2023-05-06T02:58:26.310Z,15.76
2023-05-06T03:01:24.771Z,15.76
2023-05-06T03:04:22.987Z,15.76
2023-05-06T03:07:20.548Z,15.75
2023-05-06T03:10:18.530Z,15.74
2023-05-06T03:13:16.143Z,15.73
2023-05-06T03:16:14.711Z,15.71
2023-05-06T03:19:12.601Z,15.69
2023-05-06T03:22:10.494Z,15.68
2023-05-06T03:25:08.369Z,15.67
2023-05-06T03:28:06.557Z,15.67
2023-05-06T03:31:04.450Z,15.65
2023-05-06T03:34:01.892Z,15.62
2023-05-06T03:36:59.787Z,15.60
2023-05-06T03:39:57.165Z,15.57
2023-05-06T03:42:55.166Z,15.54
2023-05-06T03:45:52.658Z,15.53
2023-05-06T03:48:50.635Z,15.53
2023-05-06T03:51:48.029Z,15.53
2023-05-06T03:54:45.861Z,15.52
2023-05-06T03:57:43.351Z,15.51
2023-05-06T04:00:41.181Z,15.49
2023-05-06T04:03:39.132Z,15.49
2023-05-06T04:06:36.794Z,15.47
2023-05-06T04:09:34.576Z,15.45
2023-05-06T04:12:31.976Z,15.44
2023-05-06T04:15:32.690Z,15.43
2023-05-06T04:18:30.676Z,15.43
2023-05-06T04:21:30.036Z,15.43
2023-05-06T04:24:28.556Z,15.42
2023-05-06T04:27:28.269Z,15.43
2023-05-06T04:30:26.234Z,15.43
2023-05-06T04:33:24.321Z,15.44
2023-05-06T04:36:22.047Z,15.43
2023-05-06T04:39:19.930Z,15.43
2023-05-06T04:42:17.537Z,15.43
2023-05-06T04:45:15.373Z,15.43
2023-05-06T04:48:13.109Z,15.43
2023-05-06T04:51:10.610Z,15.42
2023-05-06T04:54:08.477Z,15.41
2023-05-06T04:57:06.340Z,15.39
2023-05-06T05:00:03.768Z,15.39
2023-05-06T05:03:02.213Z,15.38
2023-05-06T05:06:00.296Z,15.35
2023-05-06T05:08:58.712Z,15.33
2023-05-06T05:11:57.564Z,15.31
2023-05-06T05:14:54.984Z,15.30
2023-05-06T05:17:52.990Z,15.27
2023-05-06T05:20:50.485Z,15.32
2023-05-06T05:23:48.316Z,15.39
2023-05-06T05:26:46.070Z,15.38
2023-05-06T05:29:43.934Z,15.37
2023-05-06T05:32:41.849Z,15.36
2023-05-06T05:35:39.239Z,15.36
2023-05-06T05:38:37.094Z,15.37
2023-05-06T05:41:35.525Z,15.37
2023-05-06T05:44:34.933Z,15.37
2023-05-06T05:47:32.389Z,15.36
2023-05-06T05:50:30.128Z,15.36
2023-05-06T05:53:27.561Z,15.35
2023-05-06T05:56:25.144Z,15.36
2023-05-06T05:59:22.499Z,15.40
2023-05-06T06:02:20.221Z,15.44
2023-05-06T06:05:17.986Z,15.50
2023-05-06T06:08:15.428Z,15.57
2023-05-06T06:11:13.077Z,15.67
2023-05-06T06:14:10.509Z,15.77
2023-05-06T06:17:08.175Z,15.90
2023-05-06T06:20:06.296Z,16.03
2023-05-06T06:23:05.681Z,16.17
2023-05-06T06:26:03.450Z,16.31
2023-05-06T06:29:00.838Z,16.46
2023-05-06T06:31:58.645Z,16.63
2023-05-06T06:34:56.113Z,16.81
2023-05-06T06:37:53.929Z,16.99
2023-05-06T06:40:51.325Z,17.15
2023-05-06T06:43:49.255Z,17.30
2023-05-06T06:46:46.997Z,17.44
2023-05-06T06:49:44.376Z,17.55
2023-05-06T06:52:42.140Z,17.68
2023-05-06T06:55:39.508Z,17.81
2023-05-06T06:58:37.131Z,17.93
2023-05-06T07:01:34.615Z,18.03
2023-05-06T07:04:32.428Z,18.11
2023-05-06T07:07:30.241Z,18.21
2023-05-06T07:10:27.699Z,18.32
2023-05-06T07:13:25.425Z,18.42
2023-05-06T07:16:23.244Z,18.53
2023-05-06T07:19:20.996Z,18.67
2023-05-06T07:22:18.704Z,18.83
2023-05-06T07:25:16.531Z,18.97
2023-05-06T07:28:13.949Z,19.09
2023-05-06T07:31:11.708Z,19.19
2023-05-06T07:34:09.450Z,19.30
2023-05-06T07:37:08.045Z,19.40
2023-05-06T07:40:06.721Z,19.58
2023-05-06T07:43:04.436Z,19.92
2023-05-06T07:46:05.311Z,20.31
2023-05-06T07:49:02.702Z,20.69
2023-05-06T07:52:00.357Z,21.03
2023-05-06T07:54:57.990Z,21.40
2023-05-06T07:57:55.391Z,21.79
2023-05-06T08:00:53.029Z,22.29
2023-05-06T08:03:50.564Z,22.78
2023-05-06T08:06:48.431Z,23.18
2023-05-06T08:09:45.840Z,23.57
2023-05-06T08:12:43.607Z,23.95
2023-05-06T08:15:41.476Z,24.14
2023-05-06T08:18:38.915Z,24.14
2023-05-06T08:21:37.329Z,24.14
2023-05-06T08:24:34.747Z,24.18
2023-05-06T08:27:33.325Z,24.19
2023-05-06T08:30:30.771Z,24.24
2023-05-06T08:33:28.381Z,24.23
2023-05-06T08:36:25.861Z,24.23
2023-05-06T08:39:24.117Z,24.18
2023-05-06T08:42:21.884Z,24.16
2023-05-06T08:45:19.305Z,24.14
2023-05-06T08:48:17.102Z,24.14
2023-05-06T08:51:14.508Z,24.19
2023-05-06T08:54:12.034Z,24.14
2023-05-06T08:57:10.979Z,24.01
2023-05-06T09:00:11.351Z,23.85
2023-05-06T09:03:09.168Z,23.61
2023-05-06T09:06:06.638Z,23.36
2023-05-06T09:09:04.445Z,23.15
2023-05-06T09:12:02.546Z,22.99
2023-05-06T09:15:00.475Z,22.87
2023-05-06T09:17:58.162Z,22.88
2023-05-06T09:20:55.662Z,23.07
2023-05-06T09:23:53.383Z,23.19
2023-05-06T09:26:50.857Z,23.37
2023-05-06T09:29:48.484Z,23.61
2023-05-06T09:32:49.849Z,23.79
2023-05-06T09:35:48.041Z,23.91
2023-05-06T09:38:45.923Z,23.91
2023-05-06T09:41:43.548Z,23.83
2023-05-06T09:44:41.230Z,23.67
2023-05-06T09:47:38.653Z,23.53
2023-05-06T09:50:36.398Z,23.48
2023-05-06T09:53:33.839Z,23.48
2023-05-06T09:56:31.545Z,23.52
2023-05-06T09:59:29.381Z,23.55
2023-05-06T10:02:27.252Z,23.60
2023-05-06T10:05:24.916Z,23.65
2023-05-06T10:08:23.175Z,23.74
2023-05-06T10:11:20.627Z,23.97
2023-05-06T10:14:18.210Z,24.41
2023-05-06T10:17:16.545Z,24.97
2023-05-06T10:20:13.995Z,25.50
2023-05-06T10:23:12.394Z,26.29
2023-05-06T10:26:09.829Z,26.79
2023-05-06T10:29:07.394Z,26.95
2023-05-06T10:32:05.050Z,26.95
2023-05-06T10:35:03.084Z,26.82
2023-05-06T10:38:00.834Z,26.72
2023-05-06T10:40:58.218Z,26.82
2023-05-06T10:43:57.835Z,27.16
2023-05-06T10:46:55.266Z,27.80
2023-05-06T10:49:52.919Z,28.45
2023-05-06T10:52:50.478Z,28.99
2023-05-06T10:55:48.132Z,29.49
2023-05-06T10:58:46.007Z,29.84
2023-05-06T11:01:43.425Z,30.20
2023-05-06T11:04:41.061Z,30.50
2023-05-06T11:07:38.444Z,30.43
2023-05-06T11:10:36.555Z,30.23
2023-05-06T11:13:34.144Z,30.11
2023-05-06T11:16:31.793Z,29.93
2023-05-06T11:19:30.391Z,29.92
2023-05-06T11:22:27.811Z,30.06
2023-05-06T11:25:25.505Z,30.35
2023-05-06T11:28:22.949Z,30.33
2023-05-06T11:31:20.748Z,30.16
2023-05-06T11:34:18.307Z,29.91
2023-05-06T11:37:15.744Z,29.66
2023-05-06T11:40:13.409Z,29.42
2023-05-06T11:43:10.888Z,29.54
2023-05-06T11:46:08.669Z,29.95
2023-05-06T11:49:06.530Z,30.24
2023-05-06T11:52:03.923Z,30.38
2023-05-06T11:55:01.655Z,30.42
2023-05-06T11:57:59.050Z,30.11
2023-05-06T12:00:56.683Z,29.93
2023-05-06T12:03:54.278Z,29.81
2023-05-06T12:06:51.941Z,29.84
2023-05-06T12:09:49.337Z,30.16
2023-05-06T12:12:46.994Z,30.55
2023-05-06T12:15:44.640Z,30.96
2023-05-06T12:18:42.078Z,31.29
2023-05-06T12:21:39.820Z,31.30
2023-05-06T12:24:38.405Z,31.17
2023-05-06T12:27:35.964Z,31.34
2023-05-06T12:30:34.659Z,31.52
2023-05-06T12:33:32.138Z,31.70
2023-05-06T12:36:29.864Z,31.85
2023-05-06T12:39:27.274Z,31.92
2023-05-06T12:42:24.921Z,32.06
2023-05-06T12:45:22.338Z,32.29
2023-05-06T12:48:19.929Z,32.24
2023-05-06T12:51:17.709Z,31.75
2023-05-06T12:54:15.158Z,31.07
2023-05-06T12:57:12.831Z,30.62
2023-05-06T13:00:10.879Z,30.55
2023-05-06T13:03:09.045Z,30.37
2023-05-06T13:06:06.549Z,30.37
2023-05-06T13:09:05.144Z,30.51
2023-05-06T13:12:02.570Z,30.59
2023-05-06T13:15:00.341Z,30.39
2023-05-06T13:17:57.804Z,30.40
2023-05-06T13:20:55.566Z,30.45
2023-05-06T13:23:53.372Z,30.31
2023-05-06T13:26:50.834Z,29.99
2023-05-06T13:29:48.452Z,29.60
2023-05-06T13:32:45.991Z,29.26
2023-05-06T13:35:43.681Z,28.95
2023-05-06T13:38:41.155Z,28.92
2023-05-06T13:41:38.828Z,29.03
2023-05-06T13:44:36.892Z,29.00
2023-05-06T13:47:34.299Z,29.10
2023-05-06T13:50:31.997Z,29.12
2023-05-06T13:53:29.555Z,29.06
2023-05-06T13:56:27.249Z,28.87
2023-05-06T13:59:24.632Z,28.59
2023-05-06T14:02:24.207Z,28.26
2023-05-06T14:05:22.226Z,27.79
2023-05-06T14:08:19.965Z,27.36
2023-05-06T14:11:18.381Z,27.00
2023-05-06T14:14:16.024Z,26.66
2023-05-06T14:17:13.632Z,26.23
2023-05-06T14:20:11.091Z,25.87
2023-05-06T14:23:09.398Z,25.76
2023-05-06T14:26:06.789Z,25.89
2023-05-06T14:29:04.446Z,25.93
2023-05-06T14:32:02.152Z,25.84
2023-05-06T14:34:59.689Z,25.74
2023-05-06T14:37:57.423Z,25.72
2023-05-06T14:40:54.806Z,25.69
2023-05-06T14:43:52.427Z,25.76
2023-05-06T14:46:49.818Z,25.82
2023-05-06T14:49:47.513Z,25.89
2023-05-06T14:52:44.912Z,25.96
2023-05-06T14:55:42.526Z,25.98
2023-05-06T14:58:40.660Z,25.90
2023-05-06T15:01:38.127Z,25.76
2023-05-06T15:04:36.020Z,25.62
2023-05-06T15:07:33.399Z,25.53
2023-05-06T15:10:31.108Z,25.50
2023-05-06T15:13:28.546Z,25.45
2023-05-06T15:16:26.329Z,25.45
2023-05-06T15:19:24.006Z,25.52
2023-05-06T15:22:21.454Z,25.53
2023-05-06T15:25:33.354Z,25.44
2023-05-06T15:28:32.165Z,25.32
2023-05-06T15:31:29.948Z,25.19
2023-05-06T15:34:27.420Z,25.09
2023-05-06T15:37:25.040Z,24.99
2023-05-06T15:40:25.616Z,24.88
2023-05-06T15:43:24.353Z,24.79
2023-05-06T15:46:22.881Z,24.70
2023-05-06T15:49:47.309Z,24.55
2023-05-06T15:52:38.019Z,24.45
2023-05-06T15:55:45.198Z,24.37
2023-05-06T15:58:49.278Z,24.32
2023-05-06T16:04:47.875Z,24.19
2023-05-06T16:07:46.032Z,24.13
2023-05-06T16:10:43.479Z,24.06
2023-05-06T16:13:43.698Z,23.98
2023-05-06T16:16:41.153Z,23.89
2023-05-06T16:19:39.432Z,23.79
2023-05-06T16:22:39.208Z,23.72
2023-05-06T16:25:38.414Z,23.61
2023-05-06T16:28:37.377Z,23.50
2023-05-06T16:31:36.153Z,23.39
2023-05-06T16:34:33.920Z,23.28
2023-05-06T16:37:31.355Z,23.14
2023-05-06T16:40:30.291Z,23.01
2023-05-06T16:43:27.743Z,22.91
2023-05-06T16:46:26.477Z,22.80
2023-05-06T16:49:27.999Z,22.67
2023-05-06T16:52:25.500Z,22.49
2023-05-06T16:55:23.210Z,22.29
2023-05-06T16:58:20.614Z,22.13
2023-05-06T17:01:18.366Z,21.96
2023-05-06T17:04:16.126Z,21.79
2023-05-06T17:07:13.878Z,21.63
2023-05-06T17:10:12.542Z,21.50
2023-05-06T17:13:10.203Z,21.34
2023-05-06T17:16:07.935Z,21.14
2023-05-06T17:19:05.381Z,20.93
2023-05-06T17:22:03.422Z,20.73
2023-05-06T17:25:01.208Z,20.52
2023-05-06T17:27:58.959Z,20.31
2023-05-06T17:30:56.621Z,20.12
2023-05-06T17:33:54.048Z,19.95
2023-05-06T17:36:52.506Z,19.78
2023-05-06T17:39:49.975Z,19.63
2023-05-06T17:42:48.096Z,19.50
2023-05-06T17:45:46.178Z,19.35
2023-05-06T17:48:44.150Z,19.22
2023-05-06T17:51:46.217Z,19.08
2023-05-06T17:54:43.671Z,18.91
2023-05-06T17:57:41.439Z,18.73
2023-05-06T18:00:38.987Z,18.58
2023-05-06T18:03:36.816Z,18.45
2023-05-06T18:06:34.385Z,18.33
2023-05-06T18:09:32.823Z,18.21
2023-05-06T18:12:30.194Z,18.08
2023-05-06T18:15:27.930Z,17.99
2023-05-06T18:18:25.643Z,17.90
2023-05-06T18:21:23.215Z,17.83
2023-05-06T18:24:21.970Z,17.75
2023-05-06T18:27:19.345Z,17.68
2023-05-06T18:30:17.283Z,17.59
2023-05-06T18:33:14.722Z,17.51
2023-05-06T18:36:13.447Z,17.45
2023-05-06T18:39:11.189Z,17.38
2023-05-06T18:42:08.643Z,17.30
2023-05-06T18:45:07.444Z,17.25
2023-05-06T18:48:05.028Z,17.20
2023-05-06T18:51:02.658Z,17.15
2023-05-06T18:54:00.159Z,17.10
2023-05-06T18:56:58.863Z,17.03
2023-05-06T18:59:56.430Z,16.96
2023-05-06T19:02:53.965Z,16.91
2023-05-06T19:05:52.852Z,16.88
2023-05-06T19:08:50.285Z,16.82
2023-05-06T19:11:47.959Z,16.77
2023-05-06T19:14:45.402Z,16.70
2023-05-06T19:17:43.185Z,16.63
2023-05-06T19:20:40.648Z,16.56
2023-05-06T19:23:38.373Z,16.49
2023-05-06T19:26:36.418Z,16.42
2023-05-06T19:29:33.827Z,16.36
2023-05-06T19:32:32.290Z,16.29
2023-05-06T19:35:29.688Z,16.22
2023-05-06T19:38:27.479Z,16.18
2023-05-06T19:41:24.921Z,16.14
2023-05-06T19:44:22.615Z,16.09
2023-05-06T19:47:20.330Z,16.06
2023-05-06T19:50:17.772Z,16.03
2023-05-06T19:53:15.482Z,16.00
2023-05-06T19:56:12.895Z,15.97
2023-05-06T19:59:10.504Z,15.95
2023-05-06T20:02:10.520Z,15.96
2023-05-06T20:05:08.423Z,15.94
2023-05-06T20:08:10.958Z,15.94
2023-05-06T20:11:08.714Z,15.92
2023-05-06T20:14:06.350Z,15.89
2023-05-06T20:17:04.068Z,15.84
2023-05-06T20:20:09.674Z,15.79
2023-05-06T20:23:07.674Z,15.74
2023-05-06T20:26:05.375Z,15.69
2023-05-06T20:29:02.756Z,15.64
2023-05-06T20:32:00.553Z,15.60
2023-05-06T20:34:58.297Z,15.56
2023-05-06T20:37:56.118Z,15.51
2023-05-06T20:40:53.771Z,15.46
2023-05-06T20:43:52.856Z,15.43
2023-05-06T20:46:50.546Z,15.41
2023-05-06T20:49:47.983Z,15.36
2023-05-06T20:52:46.162Z,15.31
2023-05-06T20:55:43.899Z,15.27
2023-05-06T20:58:41.352Z,15.22
2023-05-06T21:01:39.296Z,15.18
2023-05-06T21:04:36.760Z,15.15
2023-05-06T21:07:34.817Z,15.11
2023-05-06T21:10:32.251Z,15.09
2023-05-06T21:13:29.876Z,15.07
2023-05-06T21:16:27.333Z,15.05
2023-05-06T21:19:24.949Z,15.03
2023-05-06T21:22:22.819Z,15.03
2023-05-06T21:25:20.197Z,15.03
2023-05-06T21:28:17.796Z,15.03
2023-05-06T21:31:15.193Z,15.01
2023-05-06T21:34:12.775Z,15.01
2023-05-06T21:37:10.142Z,15.00
2023-05-06T21:40:07.697Z,14.97
2023-05-06T21:43:05.808Z,14.96
2023-05-06T21:46:04.064Z,14.95
2023-05-06T21:49:01.553Z,14.93
2023-05-06T21:51:59.280Z,14.91
2023-05-06T21:54:57.446Z,14.91
2023-05-06T21:57:54.822Z,14.89
2023-05-06T22:00:52.698Z,14.84
2023-05-06T22:03:50.261Z,14.80
2023-05-06T22:06:48.103Z,14.76
2023-05-06T22:09:45.537Z,14.73
2023-05-06T22:12:43.319Z,14.69
2023-05-06T22:15:41.301Z,14.66
2023-05-06T22:18:41.768Z,14.62
2023-05-06T22:21:41.991Z,14.57
2023-05-06T22:24:39.682Z,14.53
2023-05-06T22:27:37.931Z,14.47
2023-05-06T22:30:35.316Z,14.43
2023-05-06T22:33:32.910Z,14.39
2023-05-06T22:36:31.851Z,14.34
2023-05-06T22:39:29.966Z,14.29
2023-05-06T22:42:27.518Z,14.25
2023-05-06T22:45:25.161Z,14.21
2023-05-06T22:48:22.858Z,14.17
2023-05-06T22:51:21.225Z,14.13
2023-05-06T22:54:18.828Z,14.08
2023-05-06T22:57:16.477Z,14.05
2023-05-06T23:00:14.136Z,14.00
2023-05-06T23:03:11.995Z,13.96
2023-05-06T23:06:09.370Z,13.92
2023-05-06T23:09:07.026Z,13.89
2023-05-06T23:12:04.416Z,13.85
2023-05-06T23:15:02.024Z,13.83
2023-05-06T23:17:59.474Z,13.79
2023-05-06T23:20:57.113Z,13.74
2023-05-06T23:23:54.754Z,13.71
2023-05-06T23:26:52.265Z,13.66
2023-05-06T23:29:49.993Z,13.62
2023-05-06T23:32:47.409Z,13.56
2023-05-06T23:35:45.080Z,13.51
2023-05-06T23:38:42.462Z,13.45
2023-05-06T23:41:40.057Z,13.40
2023-05-06T23:44:37.469Z,13.35
2023-05-06T23:47:35.177Z,13.30
2023-05-06T23:50:32.996Z,13.26
2023-05-06T23:53:30.477Z,13.22
2023-05-06T23:56:28.143Z,13.18
2023-05-06T23:59:25.593Z,13.14
